Time;durP1;ratioP1;P1;durP2;ratioP2;P2;SDS_P1;SDS_P2;PMS_P1;PMS_P2;Temp;Humidity;BMP_temperature;BMP_pressure;BME280_temperature;BME280_humidity;BME280_pressure;Samples;Min_cycle;Max_cycle;Signal;HPM_P1;HPM_P2
2021/12/15 00:00:50;;;;;;;44.47;20.50;;;6.80;99.90;;;;;;10391732;28;20749;-71
2021/12/15 00:05:51;;;;;;;62.97;19.93;;;6.80;99.90;;;;;;10411016;28;20721;-71
2021/12/15 00:10:51;;;;;;;69.23;20.03;;;6.70;99.90;;;;;;10399497;28;20216;-71
2021/12/15 00:15:52;;;;;;;53.63;17.97;;;6.50;99.90;;;;;;10399249;28;20583;-71
2021/12/15 00:20:53;;;;;;;33.50;19.87;;;6.50;99.90;;;;;;10411941;28;20319;-71
2021/12/15 00:25:54;;;;;;;23.23;18.30;;;6.40;99.90;;;;;;10402450;28;20591;-71
2021/12/15 00:30:54;;;;;;;20.17;15.90;;;6.40;99.90;;;;;;10411043;28;20230;-70
2021/12/15 00:35:55;;;;;;;22.07;17.20;;;6.40;99.90;;;;;;10394846;28;20711;-71
2021/12/15 00:40:56;;;;;;;22.07;16.93;;;6.50;99.90;;;;;;10403848;28;20241;-71
2021/12/15 00:45:57;;;;;;;21.73;15.90;;;6.50;99.90;;;;;;10397197;28;20231;-70
2021/12/15 00:50:59;;;;;;;19.40;15.53;;;6.50;99.90;;;;;;10401226;28;20220;-71
2021/12/15 00:56:00;;;;;;;21.07;15.80;;;6.60;99.90;;;;;;10403132;28;20691;-71
2021/12/15 01:01:02;;;;;;;24.13;16.10;;;6.60;99.90;;;;;;10401152;28;20290;-71
2021/12/15 01:06:09;;;;;;;20.63;16.07;;;6.70;99.90;;;;;;10402629;28;20212;-72
2021/12/15 01:22:09;;;;;;;21.80;16.57;;;6.70;99.90;;;;;;10396476;28;20232;-72
2021/12/15 01:27:10;;;;;;;22.07;16.27;;;6.70;99.90;;;;;;10402205;28;20229;-71
2021/12/15 01:32:11;;;;;;;20.70;15.40;;;6.70;99.90;;;;;;10399971;28;20228;-71
2021/12/15 01:37:12;;;;;;;20.77;14.73;;;6.80;99.90;;;;;;10398104;28;20225;-71
2021/12/15 01:42:13;;;;;;;18.83;14.40;;;6.80;99.90;;;;;;10400607;28;20255;-70
2021/12/15 01:47:14;;;;;;;19.00;13.83;;;6.80;99.90;;;;;;10389460;28;20351;-73
2021/12/15 01:52:31;;;;;;;18.50;14.53;;;6.80;99.90;;;;;;10393400;28;20896;-72
2021/12/15 01:57:34;;;;;;;19.87;14.80;;;6.80;99.90;;;;;;10397263;28;20307;-71
2021/12/15 02:02:34;;;;;;;16.90;13.90;;;6.80;99.90;;;;;;10392052;28;20283;-72
2021/12/15 02:07:36;;;;;;;18.70;14.47;;;6.80;99.90;;;;;;10392930;28;20224;-71
2021/12/15 02:12:41;;;;;;;20.33;14.37;;;6.90;99.90;;;;;;10395705;28;20262;-71
2021/12/15 02:17:43;;;;;;;18.77;14.73;;;6.80;99.90;;;;;;10389634;28;20251;-71
2021/12/15 02:22:44;;;;;;;22.10;15.40;;;6.80;99.90;;;;;;10396200;28;20255;-71
2021/12/15 02:27:45;;;;;;;19.63;15.17;;;6.80;99.90;;;;;;10391002;28;20228;-70
2021/12/15 02:37:59;;;;;;;19.00;14.20;;;6.80;99.90;;;;;;10392118;28;20227;-70
2021/12/15 02:43:00;;;;;;;17.90;14.47;;;6.70;99.90;;;;;;10395637;28;20457;-69
2021/12/15 02:48:01;;;;;;;16.60;13.63;;;6.70;99.90;;;;;;10395005;28;20224;-69
2021/12/15 02:53:04;;;;;;;19.47;15.03;;;6.60;99.90;;;;;;10397380;28;20216;-69
2021/12/15 02:58:06;;;;;;;17.20;13.70;;;6.60;99.90;;;;;;10389706;28;20444;-69
2021/12/15 03:08:50;;;;;;;18.67;15.10;;;6.70;99.90;;;;;;10399173;28;20601;-70
2021/12/15 03:19:13;;;;;;;16.93;13.60;;;6.70;99.90;;;;;;10397384;28;20221;-71
2021/12/15 03:24:18;;;;;;;18.27;13.70;;;6.70;99.90;;;;;;10400654;28;20233;-69
2021/12/15 03:34:49;;;;;;;16.27;12.20;;;6.70;99.90;;;;;;10398238;28;20708;-70
2021/12/15 03:39:55;;;;;;;17.53;13.30;;;6.80;99.90;;;;;;10390019;28;20233;-71
2021/12/15 03:44:57;;;;;;;14.77;12.23;;;6.80;99.90;;;;;;10397763;28;20252;-71
2021/12/15 03:50:02;;;;;;;15.90;13.13;;;6.80;99.90;;;;;;10394027;28;20224;-70
2021/12/15 03:55:05;;;;;;;18.20;14.10;;;6.70;99.90;;;;;;10398830;28;20224;-70
2021/12/15 04:00:09;;;;;;;15.70;13.33;;;6.70;99.90;;;;;;10403599;28;20220;-69
2021/12/15 04:05:12;;;;;;;15.43;11.70;;;6.70;99.90;;;;;;10395486;28;20247;-69
2021/12/15 04:10:16;;;;;;;16.10;12.73;;;6.70;99.90;;;;;;10396672;28;20845;-69
2021/12/15 04:15:28;;;;;;;16.10;12.67;;;6.60;99.90;;;;;;10402389;28;20185;-69
2021/12/15 04:20:35;;;;;;;14.37;12.27;;;6.60;99.90;;;;;;10396246;28;20376;-69
2021/12/15 04:25:38;;;;;;;14.50;11.63;;;6.50;99.90;;;;;;10406879;28;20225;-69
2021/12/15 04:30:44;;;;;;;14.27;12.00;;;6.40;99.90;;;;;;10397150;28;20225;-69
2021/12/15 04:35:45;;;;;;;15.17;11.73;;;6.30;99.90;;;;;;10409803;28;20227;-69
2021/12/15 04:40:46;;;;;;;14.87;11.87;;;6.30;99.90;;;;;;10390903;28;20255;-70
2021/12/15 04:45:47;;;;;;;14.33;11.63;;;6.30;99.90;;;;;;10398697;28;20776;-69
2021/12/15 04:50:48;;;;;;;13.83;11.03;;;6.40;99.90;;;;;;10393127;28;20909;-69
2021/12/15 04:55:49;;;;;;;14.57;11.27;;;6.40;99.90;;;;;;10395969;28;20623;-70
2021/12/15 05:00:57;;;;;;;13.27;11.03;;;6.50;99.90;;;;;;10398650;28;20718;-70
2021/12/15 05:05:57;;;;;;;15.17;11.67;;;6.60;99.90;;;;;;10399365;28;20225;-70
2021/12/15 05:10:59;;;;;;;13.27;10.17;;;6.60;99.90;;;;;;10399323;28;20240;-70
2021/12/15 05:16:02;;;;;;;13.87;10.77;;;6.60;99.90;;;;;;10394236;28;20225;-70
2021/12/15 05:21:05;;;;;;;14.50;10.63;;;6.60;99.90;;;;;;10398482;28;20359;-70
2021/12/15 05:26:05;;;;;;;13.53;10.63;;;6.70;99.90;;;;;;10399689;28;20225;-70
2021/12/15 05:31:06;;;;;;;14.30;10.90;;;6.60;99.90;;;;;;10396890;28;20224;-71
2021/12/15 05:36:07;;;;;;;13.63;11.57;;;6.60;99.90;;;;;;10407148;28;20307;-70
2021/12/15 05:41:08;;;;;;;16.10;11.60;;;6.60;99.90;;;;;;10388001;28;20248;-70
2021/12/15 05:46:08;;;;;;;15.53;10.53;;;6.60;99.90;;;;;;10397867;28;20228;-70
2021/12/15 05:51:09;;;;;;;14.63;11.17;;;6.60;99.90;;;;;;10394288;28;20364;-70
2021/12/15 05:56:10;;;;;;;15.93;12.17;;;6.50;99.90;;;;;;10403829;28;20228;-70
2021/12/15 06:01:11;;;;;;;15.37;12.17;;;6.50;99.90;;;;;;10400625;28;20312;-70
2021/12/15 06:06:11;;;;;;;16.27;12.10;;;6.60;99.90;;;;;;10403747;28;20295;-69
2021/12/15 06:11:13;;;;;;;17.73;14.17;;;6.60;99.90;;;;;;10397553;28;20236;-70
2021/12/15 06:16:15;;;;;;;27.33;18.20;;;6.60;99.90;;;;;;10401289;28;20323;-70
2021/12/15 06:21:18;;;;;;;22.23;15.40;;;6.60;99.90;;;;;;10397950;28;20229;-70
2021/12/15 06:26:19;;;;;;;18.90;14.47;;;6.70;99.90;;;;;;10401884;28;20268;-69
2021/12/15 06:31:19;;;;;;;19.43;15.47;;;6.70;99.90;;;;;;10400520;28;20233;-70
2021/12/15 06:36:21;;;;;;;17.33;12.70;;;6.70;99.90;;;;;;10395100;28;20221;-69
2021/12/15 06:41:22;;;;;;;16.93;11.93;;;6.70;99.90;;;;;;10402161;28;20228;-70
2021/12/15 07:02:24;;;;;;;20.17;13.80;;;6.70;99.90;;;;;;10399638;28;20772;-71
2021/12/15 07:07:28;;;;;;;21.83;13.67;;;6.80;99.90;;;;;;10401242;28;20316;-71
2021/12/15 07:12:29;;;;;;;19.90;14.10;;;6.80;99.90;;;;;;10394922;28;20228;-71
2021/12/15 07:17:29;;;;;;;23.43;15.07;;;6.80;99.90;;;;;;10404313;28;20638;-72
2021/12/15 07:27:41;;;;;;;18.87;13.17;;;6.90;99.90;;;;;;10394171;28;20220;-72
2021/12/15 07:32:43;;;;;;;21.10;14.60;;;7.00;99.90;;;;;;10393565;28;20229;-72
2021/12/15 07:37:47;;;;;;;24.57;15.03;;;7.00;99.90;;;;;;10397122;28;20249;-70
2021/12/15 07:43:13;;;;;;;20.17;13.53;;;7.00;99.90;;;;;;10416813;28;20251;-70
2021/12/15 07:48:16;;;;;;;19.90;12.50;;;7.10;99.90;;;;;;10387770;28;20275;-73
2021/12/15 07:53:18;;;;;;;19.23;13.70;;;7.10;99.90;;;;;;10398704;28;20212;-71
2021/12/15 07:58:20;;;;;;;16.83;13.17;;;7.20;99.90;;;;;;10394427;28;20228;-70
2021/12/15 08:03:21;;;;;;;18.93;14.03;;;7.20;99.90;;;;;;10398070;28;20259;-69
2021/12/15 08:08:22;;;;;;;19.80;13.33;;;7.20;99.90;;;;;;10402373;28;20227;-70
2021/12/15 08:13:26;;;;;;;20.33;13.97;;;7.30;99.90;;;;;;10395112;28;20221;-70
2021/12/15 08:18:27;;;;;;;20.80;14.00;;;7.30;99.90;;;;;;10394972;28;20228;-71
2021/12/15 08:23:28;;;;;;;17.43;12.83;;;7.30;99.90;;;;;;10395061;28;20242;-72
2021/12/15 08:28:29;;;;;;;21.37;14.40;;;7.30;99.90;;;;;;10395793;28;20304;-72
2021/12/15 08:33:31;;;;;;;22.97;15.00;;;7.30;99.90;;;;;;10389987;28;20232;-70
2021/12/15 08:38:34;;;;;;;19.77;14.33;;;7.40;99.90;;;;;;10391491;28;20225;-70
2021/12/15 08:43:35;;;;;;;22.13;15.30;;;7.40;99.90;;;;;;10399317;28;20725;-72
2021/12/15 08:48:37;;;;;;;22.90;15.77;;;7.50;99.90;;;;;;10398279;28;20262;-70
2021/12/15 08:53:41;;;;;;;22.77;15.57;;;7.50;99.90;;;;;;10393175;28;20254;-71
2021/12/15 08:58:42;;;;;;;24.13;16.50;;;7.60;99.90;;;;;;10390938;28;20249;-70
2021/12/15 09:03:43;;;;;;;22.87;17.37;;;7.70;99.90;;;;;;10386450;28;20324;-71
2021/12/15 09:08:46;;;;;;;25.43;17.70;;;7.70;99.90;;;;;;10392771;28;20226;-70
2021/12/15 09:13:50;;;;;;;25.87;17.43;;;7.80;99.90;;;;;;10387346;28;20538;-70
2021/12/15 09:18:52;;;;;;;23.70;16.73;;;7.90;99.90;;;;;;10392659;28;20619;-70
2021/12/15 09:23:53;;;;;;;21.77;16.87;;;8.00;99.90;;;;;;10394369;28;20225;-70
2021/12/15 09:28:54;;;;;;;22.40;16.17;;;8.10;99.90;;;;;;10400078;28;20222;-70
2021/12/15 09:33:56;;;;;;;18.97;15.40;;;8.30;99.90;;;;;;10398639;28;20221;-70
2021/12/15 09:39:03;;;;;;;20.93;16.03;;;8.30;99.90;;;;;;10396021;28;20304;-71
2021/12/15 09:44:09;;;;;;;17.03;13.80;;;8.50;99.90;;;;;;10401067;28;20234;-71
2021/12/15 10:05:35;;;;;;;16.17;11.63;;;9.00;99.90;;;;;;10402238;28;20217;-72
2021/12/15 10:11:42;;;;;;;16.67;11.47;;;9.40;99.90;;;;;;10390459;28;20218;-72
2021/12/15 10:21:29;;;;;;;19.40;12.43;;;10.70;99.90;;;;;;10389623;28;20230;-71
2021/12/15 10:26:30;;;;;;;16.03;12.50;;;11.20;99.90;;;;;;10387400;28;20308;-71
2021/12/15 10:31:31;;;;;;;15.83;11.03;;;11.80;99.90;;;;;;10392585;28;20311;-71
2021/12/15 10:36:34;;;;;;;14.23;11.60;;;12.50;99.90;;;;;;10387436;28;20214;-71
2021/12/15 10:41:39;;;;;;;14.20;11.17;;;12.50;99.90;;;;;;10398407;28;20275;-70
2021/12/15 10:46:50;;;;;;;15.33;11.47;;;12.30;99.90;;;;;;10411294;28;20751;-74
2021/12/15 10:52:01;;;;;;;17.10;11.87;;;11.90;99.90;;;;;;10388027;28;20218;-71
2021/12/15 10:57:17;;;;;;;11.77;10.00;;;11.70;99.90;;;;;;10381551;28;20220;-70
2021/12/15 11:02:29;;;;;;;11.07;9.80;;;11.40;99.90;;;;;;10394170;28;20233;-72
2021/12/15 11:07:37;;;;;;;12.83;10.10;;;11.30;99.90;;;;;;10392915;28;20573;-71
2021/12/15 11:12:40;;;;;;;13.43;9.50;;;11.30;99.90;;;;;;10392090;28;20606;-72
2021/12/15 11:17:47;;;;;;;11.23;8.50;;;11.30;99.90;;;;;;10393486;28;20219;-71
2021/12/15 11:23:02;;;;;;;11.53;7.43;;;11.20;99.90;;;;;;10394843;28;20261;-72
2021/12/15 11:28:09;;;;;;;13.77;9.10;;;11.10;99.90;;;;;;10393428;28;20924;-68
2021/12/15 11:33:22;;;;;;;10.50;8.80;;;11.00;99.90;;;;;;10405451;28;20235;-69
2021/12/15 11:38:30;;;;;;;9.20;7.87;;;10.80;99.90;;;;;;10397596;28;20223;-69
2021/12/15 11:43:51;;;;;;;10.90;7.30;;;10.70;99.90;;;;;;10398359;28;20234;-69
2021/12/15 11:49:00;;;;;;;14.10;9.23;;;10.60;99.90;;;;;;10404486;28;20219;-71
2021/12/15 11:54:01;;;;;;;15.83;10.30;;;10.50;99.90;;;;;;10391164;28;20225;-69
2021/12/15 11:59:31;;;;;;;14.63;11.30;;;10.40;99.90;;;;;;10396930;28;20242;-71
2021/12/15 12:04:37;;;;;;;13.83;11.37;;;10.40;99.90;;;;;;10391551;28;20230;-72
2021/12/15 12:09:42;;;;;;;15.27;12.30;;;10.40;99.90;;;;;;10400542;28;20217;-70
2021/12/15 12:14:53;;;;;;;19.57;12.07;;;10.40;99.90;;;;;;10406514;28;20740;-70
2021/12/15 12:19:57;;;;;;;14.80;11.63;;;10.50;99.90;;;;;;10389968;28;20762;-71
2021/12/15 12:25:08;;;;;;;13.60;10.40;;;10.50;99.90;;;;;;10400890;28;20230;-70
2021/12/15 12:30:13;;;;;;;15.83;12.33;;;10.50;99.90;;;;;;10400170;28;20232;-70
2021/12/15 12:35:18;;;;;;;15.87;12.57;;;10.60;99.90;;;;;;10396893;28;20626;-70
2021/12/15 12:40:26;;;;;;;15.20;12.07;;;10.50;99.90;;;;;;10399091;28;20249;-71
2021/12/15 12:45:36;;;;;;;15.27;11.70;;;10.60;99.90;;;;;;10398567;28;20226;-71
2021/12/15 12:51:06;;;;;;;13.50;11.00;;;10.60;99.90;;;;;;10402799;28;20635;-70
2021/12/15 13:01:32;;;;;;;15.57;12.60;;;10.60;99.90;;;;;;10376626;28;20711;-72
2021/12/15 13:06:42;;;;;;;16.77;13.50;;;10.60;99.90;;;;;;10394435;28;20226;-72
2021/12/15 13:11:48;;;;;;;18.40;13.87;;;10.50;99.90;;;;;;10393816;28;20214;-72
2021/12/15 13:16:58;;;;;;;18.90;13.93;;;10.40;99.90;;;;;;10387191;28;20266;-71
2021/12/15 13:32:38;;;;;;;17.00;13.50;;;10.40;99.90;;;;;;10394595;28;20309;-70
2021/12/15 13:37:59;;;;;;;17.27;14.80;;;10.40;99.90;;;;;;10396485;28;20220;-72
2021/12/15 13:43:03;;;;;;;18.63;14.90;;;10.40;99.90;;;;;;10392066;28;20258;-71
2021/12/15 13:48:06;;;;;;;19.53;14.93;;;10.40;99.90;;;;;;10397514;28;20220;-71
2021/12/15 13:53:10;;;;;;;17.47;14.77;;;10.30;99.90;;;;;;10396649;28;20222;-73
2021/12/15 13:58:16;;;;;;;17.20;14.37;;;10.30;99.90;;;;;;10401878;28;20312;-71
2021/12/15 14:03:21;;;;;;;19.07;14.37;;;10.20;99.90;;;;;;10390487;28;20231;-72
2021/12/15 14:08:38;;;;;;;19.67;14.77;;;10.20;99.90;;;;;;10394504;28;20227;-72
2021/12/15 14:13:48;;;;;;;16.33;13.60;;;10.10;99.90;;;;;;10394794;28;20305;-72
2021/12/15 14:18:49;;;;;;;20.63;14.77;;;10.10;99.90;;;;;;10391182;28;20238;-72
2021/12/15 14:23:55;;;;;;;19.40;14.37;;;10.00;99.90;;;;;;10396932;28;20233;-73
2021/12/15 14:29:00;;;;;;;17.77;14.53;;;10.00;99.90;;;;;;10385642;28;20646;-72
2021/12/15 14:34:14;;;;;;;22.53;16.27;;;9.90;99.90;;;;;;10392346;28;20737;-72
2021/12/15 14:39:18;;;;;;;18.43;16.07;;;9.80;99.90;;;;;;10396187;28;20258;-72
2021/12/15 14:44:27;;;;;;;18.90;15.30;;;9.80;99.90;;;;;;10394509;28;20240;-72
2021/12/15 14:49:39;;;;;;;21.53;16.00;;;9.70;99.90;;;;;;10403140;28;20246;-72
2021/12/15 14:54:43;;;;;;;20.97;16.90;;;9.60;99.90;;;;;;10398032;28;20603;-72
2021/12/15 14:59:58;;;;;;;21.73;16.57;;;9.60;99.90;;;;;;10392954;28;20254;-71
2021/12/15 15:05:05;;;;;;;24.07;17.80;;;9.50;99.90;;;;;;10400333;28;20221;-72
2021/12/15 15:10:10;;;;;;;25.03;17.90;;;9.40;99.90;;;;;;10402637;28;20850;-71
2021/12/15 15:15:25;;;;;;;21.13;16.47;;;9.30;99.90;;;;;;10410126;28;20184;-71
2021/12/15 15:20:33;;;;;;;24.37;18.33;;;9.20;99.90;;;;;;10402648;28;20706;-72
2021/12/15 15:25:44;;;;;;;23.80;16.97;;;9.20;99.90;;;;;;10404322;28;20232;-73
2021/12/15 15:30:47;;;;;;;22.77;18.63;;;9.20;99.90;;;;;;10405578;28;20219;-72
2021/12/15 15:35:57;;;;;;;23.87;17.87;;;9.20;99.90;;;;;;10405847;28;20328;-71
2021/12/15 15:41:27;;;;;;;25.23;19.47;;;9.10;99.90;;;;;;10405413;28;20226;-71
2021/12/15 15:46:35;;;;;;;24.03;19.07;;;9.10;99.90;;;;;;10409208;28;20953;-71
2021/12/15 15:51:37;;;;;;;27.17;19.77;;;9.00;99.90;;;;;;10410315;28;20213;-70
2021/12/15 15:56:41;;;;;;;26.13;19.07;;;9.00;99.90;;;;;;10409380;28;20230;-71
2021/12/15 16:01:51;;;;;;;25.80;19.90;;;8.90;99.90;;;;;;10409600;28;20235;-71
2021/12/15 16:06:52;;;;;;;26.10;19.80;;;8.90;99.90;;;;;;10402582;28;20323;-70
2021/12/15 16:11:56;;;;;;;26.10;19.70;;;8.80;99.90;;;;;;10402297;28;20243;-72
2021/12/15 16:17:06;;;;;;;24.67;19.47;;;8.80;99.90;;;;;;10410578;28;20874;-70
2021/12/15 16:27:45;;;;;;;26.43;18.23;;;8.80;99.90;;;;;;10396706;28;20314;-71
2021/12/15 16:32:47;;;;;;;24.70;18.53;;;8.90;99.90;;;;;;10397854;28;20273;-71
2021/12/15 16:37:48;;;;;;;22.70;18.60;;;8.80;99.90;;;;;;10404548;28;20707;-71
2021/12/15 16:43:07;;;;;;;24.93;17.27;;;8.90;99.90;;;;;;10407967;28;20238;-70
2021/12/15 16:48:23;;;;;;;21.70;17.03;;;8.90;99.90;;;;;;10404173;28;20237;-70
2021/12/15 16:53:38;;;;;;;21.97;17.47;;;8.90;99.90;;;;;;10401315;28;20219;-70
2021/12/15 16:58:39;;;;;;;22.60;17.07;;;8.90;99.90;;;;;;10415413;28;20618;-71
2021/12/15 17:03:40;;;;;;;20.67;15.50;;;8.90;99.90;;;;;;10406005;28;20295;-70
2021/12/15 17:08:41;;;;;;;22.80;15.70;;;8.90;99.90;;;;;;10395774;28;20538;-71
2021/12/15 17:13:43;;;;;;;21.47;16.50;;;8.80;99.90;;;;;;10415871;28;20344;-70
2021/12/15 17:18:46;;;;;;;21.47;15.30;;;8.80;99.90;;;;;;10408500;28;20757;-70
2021/12/15 17:23:55;;;;;;;21.23;15.67;;;8.80;99.90;;;;;;10409014;28;20304;-73
2021/12/15 17:29:03;;;;;;;21.27;16.87;;;8.80;99.90;;;;;;10401402;28;20635;-70
2021/12/15 17:34:08;;;;;;;20.30;16.00;;;8.80;99.90;;;;;;10382429;28;20789;-70
2021/12/15 17:39:24;;;;;;;19.20;14.53;;;8.80;99.90;;;;;;10741531;22;20258;-73
2021/12/15 17:44:31;;;;;;;19.73;15.90;;;8.80;99.90;;;;;;10320805;28;20781;-73
2021/12/15 17:49:49;;;;;;;20.40;14.77;;;8.80;99.90;;;;;;10314491;28;20225;-73
2021/12/15 17:55:23;;;;;;;19.87;14.57;;;8.80;99.90;;;;;;10325190;28;20323;-72
2021/12/15 18:00:31;;;;;;;19.20;15.30;;;8.80;99.90;;;;;;10321585;28;20259;-73
2021/12/15 18:05:31;;;;;;;19.23;13.47;;;8.70;99.90;;;;;;10351279;28;20234;-73
2021/12/15 18:11:06;;;;;;;17.83;13.70;;;8.80;99.90;;;;;;10366915;28;20216;-73
2021/12/15 18:16:00;;;;;;;18.13;13.47;;;8.80;99.90;;;;;;10358135;28;20241;-73
2021/12/15 18:21:04;;;;;;;19.43;14.70;;;8.70;99.90;;;;;;10365806;28;20238;-74
2021/12/15 18:26:06;;;;;;;18.07;13.97;;;8.80;99.90;;;;;;10381103;28;20277;-75
2021/12/15 18:31:07;;;;;;;20.40;15.60;;;8.80;99.90;;;;;;10373071;28;20223;-75
2021/12/15 18:36:08;;;;;;;25.33;17.57;;;8.80;99.90;;;;;;10370658;28;20223;-74
2021/12/15 18:41:17;;;;;;;21.50;14.33;;;8.80;99.90;;;;;;10373348;28;20227;-74
2021/12/15 18:46:19;;;;;;;18.13;13.07;;;8.80;99.90;;;;;;10355632;28;20224;-74
2021/12/15 18:51:21;;;;;;;20.03;15.20;;;8.80;99.90;;;;;;10348670;28;20314;-74
2021/12/15 18:56:22;;;;;;;22.07;15.97;;;8.80;99.90;;;;;;10355904;28;20229;-74
2021/12/15 19:01:28;;;;;;;20.97;15.77;;;8.70;99.90;;;;;;10348344;28;20677;-74
2021/12/15 19:06:29;;;;;;;27.80;19.40;;;8.70;99.90;;;;;;10357392;28;20226;-74
2021/12/15 19:11:31;;;;;;;16.40;12.80;;;8.70;99.90;;;;;;10351367;28;20212;-74
2021/12/15 19:16:33;;;;;;;18.20;13.03;;;8.70;99.90;;;;;;10347886;28;20232;-74
2021/12/15 19:21:34;;;;;;;18.17;13.63;;;8.70;99.90;;;;;;10350932;28;20238;-73
2021/12/15 19:26:36;;;;;;;18.97;14.10;;;8.60;99.90;;;;;;10343463;28;20358;-73
2021/12/15 19:31:38;;;;;;;20.47;13.53;;;8.70;99.90;;;;;;10341529;28;20232;-73
2021/12/15 19:36:40;;;;;;;19.87;14.17;;;8.70;99.90;;;;;;10346536;28;20244;-73
2021/12/15 19:41:42;;;;;;;17.20;13.97;;;8.70;99.90;;;;;;10357856;28;20236;-74
2021/12/15 19:46:45;;;;;;;21.70;14.63;;;8.70;99.90;;;;;;10352478;28;20586;-74
2021/12/15 19:51:46;;;;;;;19.20;14.00;;;8.80;99.90;;;;;;10353812;28;20232;-74
2021/12/15 19:56:48;;;;;;;19.10;12.93;;;8.80;99.90;;;;;;10349326;28;20229;-74
2021/12/15 20:01:51;;;;;;;17.67;14.00;;;8.70;99.90;;;;;;10358051;28;20222;-73
2021/12/15 20:06:53;;;;;;;18.20;13.33;;;8.70;99.90;;;;;;10373774;28;20228;-73
2021/12/15 20:11:55;;;;;;;18.77;14.07;;;8.70;99.90;;;;;;10375392;28;20246;-74
2021/12/15 20:17:01;;;;;;;20.67;14.33;;;8.70;99.90;;;;;;10381581;28;20234;-73
2021/12/15 20:22:05;;;;;;;17.47;13.60;;;8.70;99.90;;;;;;10375539;28;20638;-73
2021/12/15 20:27:08;;;;;;;20.03;13.80;;;8.70;99.90;;;;;;10375140;28;20264;-74
2021/12/15 20:32:12;;;;;;;17.13;12.97;;;8.70;99.90;;;;;;10366334;28;20332;-74
2021/12/15 20:37:14;;;;;;;20.53;12.53;;;8.60;99.90;;;;;;10364364;28;20220;-74
2021/12/15 20:42:15;;;;;;;19.53;13.43;;;8.70;99.90;;;;;;10350671;28;20244;-74
2021/12/15 20:47:16;;;;;;;18.23;12.37;;;8.60;99.90;;;;;;10363230;28;20717;-74
2021/12/15 20:52:19;;;;;;;17.00;12.83;;;8.60;99.90;;;;;;10357708;28;20255;-73
2021/12/15 20:57:22;;;;;;;15.63;12.03;;;8.60;99.90;;;;;;10349568;28;20293;-74
2021/12/15 21:02:23;;;;;;;19.77;12.97;;;8.50;99.90;;;;;;10350807;28;21206;-75
2021/12/15 21:07:24;;;;;;;18.47;13.93;;;8.50;99.90;;;;;;10356256;28;20223;-75
2021/12/15 21:12:24;;;;;;;17.70;12.97;;;8.50;99.90;;;;;;10363834;28;20215;-75
2021/12/15 21:17:27;;;;;;;17.57;12.83;;;8.50;99.90;;;;;;10368163;28;20314;-75
2021/12/15 21:22:29;;;;;;;20.53;12.93;;;8.50;99.90;;;;;;10376393;28;20313;-75
2021/12/15 21:27:32;;;;;;;20.67;14.00;;;8.50;99.90;;;;;;10371481;28;20219;-76
2021/12/15 21:32:33;;;;;;;17.93;12.70;;;8.50;99.90;;;;;;10353631;28;20230;-74
2021/12/15 21:37:34;;;;;;;19.00;13.33;;;8.50;99.90;;;;;;10347970;28;20228;-75
2021/12/15 21:42:35;;;;;;;17.13;12.87;;;8.40;99.90;;;;;;10364927;28;20230;-74
2021/12/15 21:47:37;;;;;;;15.60;11.80;;;8.50;99.90;;;;;;10370182;28;20227;-75
2021/12/15 21:52:38;;;;;;;17.03;12.20;;;8.50;99.90;;;;;;10373938;28;20223;-74
2021/12/15 21:57:40;;;;;;;15.57;12.03;;;8.50;99.90;;;;;;10380193;28;20239;-74
2021/12/15 22:02:42;;;;;;;17.47;12.47;;;8.50;99.90;;;;;;10353092;28;20262;-74
2021/12/15 22:07:45;;;;;;;16.33;12.60;;;8.50;99.90;;;;;;10352182;28;20220;-74
2021/12/15 22:12:49;;;;;;;15.07;11.70;;;8.50;99.90;;;;;;10352286;28;20219;-73
2021/12/15 22:17:52;;;;;;;20.37;11.87;;;8.50;99.90;;;;;;10360522;28;20307;-74
2021/12/15 22:22:54;;;;;;;16.03;12.13;;;8.40;99.90;;;;;;10356043;28;20257;-74
2021/12/15 22:27:56;;;;;;;18.57;11.87;;;8.50;99.90;;;;;;10356183;28;20318;-73
2021/12/15 22:33:02;;;;;;;17.70;13.63;;;8.40;99.90;;;;;;10348590;28;20211;-74
2021/12/15 22:38:05;;;;;;;13.80;11.07;;;8.40;99.90;;;;;;10342888;28;20274;-74
2021/12/15 22:43:05;;;;;;;13.80;10.77;;;8.40;99.90;;;;;;10349932;28;20231;-73
2021/12/15 22:48:07;;;;;;;14.60;11.20;;;8.30;99.90;;;;;;10343070;28;20214;-73
2021/12/15 22:53:08;;;;;;;14.33;10.90;;;8.30;99.90;;;;;;10342555;28;20310;-73
2021/12/15 22:58:09;;;;;;;15.23;11.10;;;8.30;99.90;;;;;;10343523;28;20309;-74
2021/12/15 23:03:13;;;;;;;13.10;11.07;;;8.20;99.90;;;;;;10353125;28;20292;-74
2021/12/15 23:08:18;;;;;;;14.73;11.43;;;8.20;99.90;;;;;;10356864;28;20789;-73
2021/12/15 23:13:25;;;;;;;14.00;10.07;;;8.30;99.90;;;;;;10345259;28;20212;-73
2021/12/15 23:18:26;;;;;;;16.03;11.80;;;8.20;99.90;;;;;;10343675;28;20582;-73
2021/12/15 23:23:30;;;;;;;13.87;11.27;;;8.20;99.90;;;;;;10351119;28;20246;-75
2021/12/15 23:28:37;;;;;;;14.03;11.23;;;8.20;99.90;;;;;;10354140;28;20219;-74
2021/12/15 23:33:39;;;;;;;14.20;11.50;;;8.20;99.90;;;;;;10353828;28;20224;-73
